TAF KOKC
KOKC 072320Z 0800/0824 14004KT P6SM BKN250 FM081600 16012KT P6SM SCT250=
METAR KOKC
WC KOKC
WS KOKC
WV KOKC